createdAt,value
2022-10-02T00:02:44.320Z,98890.72
2022-10-02T00:05:47.038Z,98895.94
2022-10-02T00:08:48.816Z,98888.19
2022-10-02T00:11:50.470Z,98880.34
2022-10-02T00:14:52.553Z,98882.06
2022-10-02T00:17:54.874Z,98877.72
2022-10-02T00:20:56.206Z,98882.94
2022-10-02T00:23:58.577Z,98874.28
2022-10-02T00:27:15.323Z,98877.81
2022-10-02T00:30:17.037Z,98896.16
2022-10-02T00:33:21.931Z,98893.34
2022-10-02T00:36:26.250Z,98908.22
2022-10-02T00:39:43.989Z,98907.22
2022-10-02T00:42:48.307Z,98914.06
2022-10-02T00:45:52.813Z,98928.13
2022-10-02T00:49:06.405Z,98929.97
2022-10-02T00:52:17.030Z,98920.47
2022-10-02T00:55:31.166Z,98924.91
2022-10-02T00:58:49.160Z,98916.19
2022-10-02T01:01:56.458Z,98903.97
2022-10-02T01:04:58.204Z,98904.03
2022-10-02T01:08:00.750Z,98904.00
2022-10-02T01:11:02.477Z,98916.13
2022-10-02T01:14:03.837Z,98921.34
2022-10-02T01:17:24.621Z,98928.25
2022-10-02T01:20:34.488Z,98915.19
2022-10-02T01:23:35.805Z,98915.19
2022-10-02T01:26:37.422Z,98918.47
2022-10-02T01:29:39.006Z,98920.97
2022-10-02T01:32:41.340Z,98915.75
2022-10-02T01:35:42.709Z,98941.09
2022-10-02T01:38:44.183Z,98931.50
2022-10-02T01:41:45.635Z,98928.94
2022-10-02T01:44:46.980Z,98922.06
2022-10-02T01:47:51.967Z,98922.06
2022-10-02T01:50:56.712Z,98921.84
2022-10-02T01:54:07.298Z,98927.97
2022-10-02T01:57:15.860Z,98918.47
2022-10-02T02:00:17.765Z,98920.22
2022-10-02T02:03:22.274Z,98927.25
2022-10-02T02:06:42.142Z,98926.41
2022-10-02T02:10:03.745Z,98923.88
2022-10-02T02:13:11.223Z,98911.59
2022-10-02T02:16:20.614Z,98918.66
2022-10-02T02:19:23.909Z,98917.81
2022-10-02T02:22:29.085Z,98916.78
2022-10-02T02:25:30.445Z,98928.13
2022-10-02T02:28:31.983Z,98923.88
2022-10-02T02:31:34.471Z,98921.31
2022-10-02T02:34:37.527Z,98921.31
2022-10-02T02:37:39.088Z,98929.16
2022-10-02T02:40:41.845Z,98921.44
2022-10-02T02:43:59.706Z,98929.44
2022-10-02T02:47:06.812Z,98921.66
2022-10-02T02:50:23.693Z,98902.47
2022-10-02T02:53:26.247Z,98898.09
2022-10-02T02:56:27.628Z,98888.44
2022-10-02T02:59:28.961Z,98886.72
2022-10-02T03:02:30.400Z,98878.00
2022-10-02T03:05:31.785Z,98877.13
2022-10-02T03:08:34.277Z,98878.91
2022-10-02T03:11:56.417Z,98877.19
2022-10-02T03:15:02.411Z,98882.41
2022-10-02T03:18:06.735Z,98893.78
2022-10-02T03:21:10.600Z,98885.78
2022-10-02T03:24:16.024Z,98891.84
2022-10-02T03:27:26.202Z,98893.63
2022-10-02T03:30:27.539Z,98904.00
2022-10-02T03:33:29.084Z,98898.78
2022-10-02T03:36:30.435Z,98895.84
2022-10-02T03:39:31.805Z,98902.00
2022-10-02T03:42:33.713Z,98898.50
2022-10-02T03:45:51.872Z,98910.81
2022-10-02T03:48:56.465Z,98909.06
2022-10-02T03:51:57.859Z,98907.41
2022-10-02T03:55:01.713Z,98900.44
2022-10-02T03:58:05.191Z,98901.16
2022-10-02T04:01:45.616Z,98900.28
2022-10-02T04:04:52.161Z,98899.47
2022-10-02T04:07:58.167Z,98892.41
2022-10-02T04:11:01.887Z,98898.44
2022-10-02T04:14:08.745Z,98895.00
2022-10-02T04:17:11.506Z,98880.25
2022-10-02T04:20:23.563Z,98877.69
2022-10-02T04:23:29.491Z,98876.88
2022-10-02T04:26:33.106Z,98875.13
2022-10-02T04:29:39.052Z,98857.66
2022-10-02T04:32:40.399Z,98846.31
2022-10-02T04:35:48.447Z,98856.81
2022-10-02T04:38:52.768Z,98862.03
2022-10-02T04:42:07.180Z,98851.53
2022-10-02T04:45:16.211Z,98852.41
2022-10-02T04:48:17.504Z,98840.22
2022-10-02T04:51:35.111Z,98838.63
2022-10-02T04:54:39.501Z,98840.50
2022-10-02T04:57:53.086Z,98825.72
2022-10-02T05:01:13.236Z,98821.47
2022-10-02T05:04:20.483Z,98817.16
2022-10-02T05:07:37.965Z,98804.13
2022-10-02T05:10:39.648Z,98805.91
2022-10-02T05:13:48.523Z,98799.84
2022-10-02T05:17:08.633Z,98803.38
2022-10-02T05:20:33.231Z,98795.53
2022-10-02T05:23:37.564Z,98798.16
2022-10-02T05:27:11.503Z,98785.09
2022-10-02T05:30:21.923Z,98792.94
2022-10-02T05:33:28.285Z,98789.47
2022-10-02T05:36:32.364Z,98782.53
2022-10-02T05:39:34.106Z,98775.53
2022-10-02T05:42:46.845Z,98776.41
2022-10-02T05:46:01.796Z,98775.56
2022-10-02T05:49:06.814Z,98771.19
2022-10-02T05:52:08.189Z,98766.81
2022-10-02T05:55:14.982Z,98769.41
2022-10-02T05:58:20.940Z,98774.66
2022-10-02T06:01:23.361Z,98777.28
2022-10-02T06:04:29.069Z,98776.44
2022-10-02T06:07:30.466Z,98773.78
2022-10-02T06:10:33.783Z,98768.59
2022-10-02T06:13:38.730Z,98765.94
2022-10-02T06:16:42.591Z,98760.72
2022-10-02T06:19:43.909Z,98751.09
2022-10-02T06:22:47.200Z,98749.34
2022-10-02T06:25:49.790Z,98764.19
2022-10-02T06:28:51.102Z,98763.31
2022-10-02T06:32:07.209Z,98766.81
2022-10-02T06:35:12.291Z,98763.31
2022-10-02T06:38:22.863Z,98748.44
2022-10-02T06:41:30.213Z,98747.59
2022-10-02T06:44:45.076Z,98737.09
2022-10-02T06:47:54.154Z,98734.41
2022-10-02T06:51:07.799Z,98729.84
2022-10-02T06:54:19.192Z,98726.22
2022-10-02T06:57:24.259Z,98724.31
2022-10-02T07:00:26.527Z,98734.34
2022-10-02T07:03:34.259Z,98730.34
2022-10-02T07:06:47.776Z,98736.34
2022-10-02T07:09:52.216Z,98740.50
2022-10-02T07:13:05.876Z,98763.72
2022-10-02T07:16:11.019Z,98753.22
2022-10-02T07:19:31.057Z,98768.81
2022-10-02T07:22:46.226Z,98783.56
2022-10-02T07:25:51.896Z,98795.88
2022-10-02T07:29:08.792Z,98779.09
2022-10-02T07:32:30.997Z,98787.78
2022-10-02T07:35:37.412Z,98782.59
2022-10-02T07:38:45.783Z,98773.84
2022-10-02T07:42:06.040Z,98782.47
2022-10-02T07:45:07.629Z,98789.25
2022-10-02T07:48:08.987Z,98789.94
2022-10-02T07:51:34.790Z,98778.63
2022-10-02T07:54:40.032Z,98792.38
2022-10-02T07:57:45.900Z,98795.88
2022-10-02T08:00:54.650Z,98813.16
2022-10-02T08:03:56.815Z,98808.47
2022-10-02T08:07:00.279Z,98820.63
2022-10-02T08:10:03.331Z,98817.84
2022-10-02T08:13:07.062Z,98824.59
2022-10-02T08:16:08.823Z,98824.53
2022-10-02T08:19:39.676Z,98833.19
2022-10-02T08:22:41.411Z,98831.13
2022-10-02T08:25:43.537Z,98831.94
2022-10-02T08:28:46.994Z,98837.44
2022-10-02T08:31:49.930Z,98834.09
2022-10-02T08:34:51.387Z,98836.84
2022-10-02T08:38:12.395Z,98833.84
2022-10-02T08:41:22.943Z,98825.19
2022-10-02T08:44:27.318Z,98823.44
2022-10-02T08:47:33.020Z,98822.56
2022-10-02T08:50:41.884Z,98824.19
2022-10-02T08:54:18.992Z,98826.53
2022-10-02T08:57:27.335Z,98839.41
2022-10-02T09:00:37.858Z,98820.19
2022-10-02T09:03:44.847Z,98832.28
2022-10-02T09:06:46.260Z,98840.03
2022-10-02T09:10:06.407Z,98834.03
2022-10-02T09:13:26.578Z,98825.31
2022-10-02T09:16:31.124Z,98823.16
2022-10-02T09:19:51.020Z,98834.94
2022-10-02T09:22:55.745Z,98840.75
2022-10-02T09:25:59.154Z,98840.88
2022-10-02T09:29:20.130Z,98843.94
2022-10-02T09:32:34.617Z,98847.47
2022-10-02T09:35:36.008Z,98840.22
2022-10-02T09:38:39.275Z,98838.44
2022-10-02T09:42:00.740Z,98838.13
2022-10-02T09:45:21.106Z,98842.91
2022-10-02T09:48:34.651Z,98846.28
2022-10-02T09:51:55.606Z,98845.94
2022-10-02T09:55:05.334Z,98842.50
2022-10-02T09:58:16.223Z,98843.03
2022-10-02T10:01:25.599Z,98851.09
2022-10-02T10:04:37.948Z,98843.22
2022-10-02T10:07:57.426Z,98846.13
2022-10-02T10:11:12.392Z,98847.25
2022-10-02T10:14:25.016Z,98834.06
2022-10-02T10:17:32.462Z,98828.13
2022-10-02T10:20:54.140Z,98830.09
2022-10-02T10:24:01.650Z,98823.94
2022-10-02T10:27:09.110Z,98817.97
2022-10-02T10:30:28.915Z,98824.88
2022-10-02T10:33:34.560Z,98811.66
2022-10-02T10:37:07.889Z,98812.53
2022-10-02T10:40:09.663Z,98812.88
2022-10-02T10:43:32.055Z,98801.56
2022-10-02T10:46:42.705Z,98804.28
2022-10-02T10:49:43.976Z,98801.78
2022-10-02T10:53:04.269Z,98805.59
2022-10-02T10:56:26.088Z,98792.59
2022-10-02T10:59:27.381Z,98797.19
2022-10-02T11:02:47.416Z,98806.41
2022-10-02T11:05:57.999Z,98798.56
2022-10-02T11:09:18.287Z,98793.59
2022-10-02T11:12:28.254Z,98784.13
2022-10-02T11:15:29.606Z,98778.97
2022-10-02T11:18:40.178Z,98774.03
2022-10-02T11:21:48.597Z,98773.28
2022-10-02T11:25:12.841Z,98773.66
2022-10-02T11:28:21.847Z,98748.53
2022-10-02T11:31:23.393Z,98739.13
2022-10-02T11:34:46.558Z,98735.53
2022-10-02T11:38:06.714Z,98737.56
2022-10-02T11:41:08.185Z,98738.72
2022-10-02T11:44:11.387Z,98733.84
2022-10-02T11:47:18.892Z,98728.00
2022-10-02T11:50:38.614Z,98709.56
2022-10-02T11:53:45.089Z,98690.34
2022-10-02T11:57:00.503Z,98684.94
2022-10-02T12:00:31.705Z,98705.06
2022-10-02T12:04:05.542Z,98682.13
2022-10-02T12:07:06.867Z,98699.78
2022-10-02T12:10:17.292Z,98701.47
2022-10-02T12:13:24.596Z,98687.34
2022-10-02T12:16:28.926Z,98672.47
2022-10-02T12:19:40.558Z,98686.53
2022-10-02T12:23:11.043Z,98673.44
2022-10-02T12:26:37.306Z,98683.13
2022-10-02T12:29:57.301Z,98680.34
2022-10-02T12:32:58.625Z,98679.44
2022-10-02T12:36:21.275Z,98673.09
2022-10-02T12:39:41.661Z,98671.91
2022-10-02T12:42:55.279Z,98671.06
2022-10-02T12:46:04.272Z,98679.66
2022-10-02T12:49:28.409Z,98669.91
2022-10-02T12:52:35.831Z,98659.31
2022-10-02T12:55:43.128Z,98659.00
2022-10-02T12:58:53.484Z,98664.22
2022-10-02T13:02:07.360Z,98657.75
2022-10-02T13:05:18.740Z,98663.88
2022-10-02T13:08:39.704Z,98658.78
2022-10-02T13:11:41.042Z,98648.06
2022-10-02T13:14:51.578Z,98645.44
2022-10-02T13:18:04.962Z,98647.19
2022-10-02T13:21:15.552Z,98654.13
2022-10-02T13:24:21.302Z,98641.13
2022-10-02T13:27:31.899Z,98655.28
2022-10-02T13:30:35.646Z,98665.88
2022-10-02T13:33:53.177Z,98659.72
2022-10-02T13:36:57.675Z,98653.63
2022-10-02T13:40:02.750Z,98661.31
2022-10-02T13:43:22.479Z,98669.88
2022-10-02T13:46:32.915Z,98672.38
2022-10-02T13:49:54.153Z,98692.69
2022-10-02T13:53:10.649Z,98688.09
2022-10-02T13:56:30.871Z,98701.06
2022-10-02T13:59:37.708Z,98698.06
2022-10-02T14:02:48.704Z,98702.63
2022-10-02T14:05:57.771Z,98712.59
2022-10-02T14:09:12.486Z,98702.19
2022-10-02T14:12:27.551Z,98710.19
2022-10-02T14:15:28.883Z,98709.53
2022-10-02T14:18:36.279Z,98707.13
2022-10-02T14:21:43.505Z,98693.91
2022-10-02T14:25:00.005Z,98702.94
2022-10-02T14:28:02.334Z,98710.25
2022-10-02T14:31:22.538Z,98712.88
2022-10-02T14:34:29.774Z,98724.41
2022-10-02T14:37:37.534Z,98735.13
2022-10-02T14:40:45.616Z,98746.81
2022-10-02T14:44:06.577Z,98759.41
2022-10-02T14:47:15.627Z,98748.91
2022-10-02T14:50:29.318Z,98747.59
2022-10-02T14:53:43.235Z,98735.44
2022-10-02T14:56:53.893Z,98743.47
2022-10-02T15:00:14.196Z,98740.16
2022-10-02T15:03:38.026Z,98753.38
2022-10-02T15:06:59.566Z,98739.34
2022-10-02T15:10:16.784Z,98734.97
2022-10-02T15:13:28.433Z,98732.41
2022-10-02T15:16:52.693Z,98714.06
2022-10-02T15:20:05.975Z,98717.50
2022-10-02T15:23:13.790Z,98702.56
2022-10-02T15:26:15.100Z,98710.41
2022-10-02T15:29:29.563Z,98713.06
2022-10-02T15:32:50.395Z,98713.97
2022-10-02T15:36:00.990Z,98719.28
2022-10-02T15:39:21.298Z,98705.41
2022-10-02T15:42:48.050Z,98704.53
2022-10-02T15:46:03.656Z,98708.13
2022-10-02T15:49:08.648Z,98700.31
2022-10-02T15:52:30.239Z,98695.16
2022-10-02T15:55:41.658Z,98690.81
2022-10-02T15:59:01.827Z,98699.56
2022-10-02T16:02:06.548Z,98700.41
2022-10-02T16:05:21.353Z,98689.94
2022-10-02T16:08:28.790Z,98689.91
2022-10-02T16:11:49.080Z,98705.72
2022-10-02T16:15:07.721Z,98726.91
2022-10-02T16:18:13.873Z,98717.44
2022-10-02T16:21:34.257Z,98706.19
2022-10-02T16:24:41.159Z,98697.53
2022-10-02T16:28:01.400Z,98695.78
2022-10-02T16:31:22.596Z,98695.03
2022-10-02T16:34:28.054Z,98697.66
2022-10-02T16:37:37.721Z,98700.38
2022-10-02T16:40:51.401Z,98696.06
2022-10-02T16:44:11.689Z,98704.84
2022-10-02T16:47:14.318Z,98710.16
2022-10-02T16:50:19.876Z,98760.19
2022-10-02T16:53:24.443Z,98747.97
2022-10-02T16:56:33.109Z,98739.22
2022-10-02T16:59:43.481Z,98750.59
2022-10-02T17:02:46.625Z,98748.84
2022-10-02T17:05:51.109Z,98757.88
2022-10-02T17:09:01.099Z,98766.69
2022-10-02T17:12:03.929Z,98793.16
2022-10-02T17:15:13.661Z,98805.56
2022-10-02T17:18:21.115Z,98809.16
2022-10-02T17:21:25.917Z,98815.50
2022-10-02T17:24:30.360Z,98812.19
2022-10-02T17:27:35.307Z,98825.41
2022-10-02T17:30:56.591Z,98827.22
2022-10-02T17:33:58.423Z,98828.13
2022-10-02T17:37:21.089Z,98836.00
2022-10-02T17:40:24.569Z,98844.69
2022-10-02T17:43:25.870Z,98850.81
2022-10-02T17:46:42.490Z,98868.25
2022-10-02T17:49:50.053Z,98868.31
2022-10-02T17:53:10.183Z,98860.56
2022-10-02T17:56:30.530Z,98859.69
2022-10-02T17:59:50.673Z,98878.00
2022-10-02T18:03:01.146Z,98894.63
2022-10-02T18:06:21.316Z,98922.56
2022-10-02T18:09:32.083Z,98920.03
2022-10-02T18:12:51.376Z,98927.84
2022-10-02T18:16:05.853Z,98921.78
2022-10-02T18:19:22.785Z,98920.84
2022-10-02T18:22:30.968Z,98908.66
2022-10-02T18:25:49.158Z,98914.72
2022-10-02T18:29:05.684Z,98911.25
2022-10-02T18:32:13.113Z,98925.25
2022-10-02T18:35:33.446Z,98928.72
2022-10-02T18:38:53.163Z,98910.41
2022-10-02T18:41:55.509Z,98900.81
2022-10-02T18:45:16.206Z,98899.09
2022-10-02T18:48:36.526Z,98904.34
2022-10-02T18:51:55.503Z,98893.00
2022-10-02T18:55:09.095Z,98902.66
2022-10-02T18:58:11.633Z,98899.13
2022-10-02T19:01:15.903Z,98906.97
2022-10-02T19:04:20.297Z,98907.88
2022-10-02T19:07:29.825Z,98913.97
2022-10-02T19:10:31.133Z,98919.25
2022-10-02T19:13:33.528Z,98936.75
2022-10-02T19:16:35.615Z,98946.34
2022-10-02T19:19:37.051Z,98955.09
2022-10-02T19:22:38.521Z,98964.69
2022-10-02T19:25:43.850Z,98957.69
2022-10-02T19:28:47.079Z,98968.19
2022-10-02T19:31:48.477Z,98974.31
2022-10-02T19:34:50.969Z,98988.25
2022-10-02T19:37:52.751Z,98983.94
2022-10-02T19:40:54.282Z,98990.91
2022-10-02T19:43:56.508Z,98977.84
2022-10-02T19:46:58.187Z,98986.53
2022-10-02T19:50:00.241Z,98984.81
2022-10-02T19:53:02.248Z,98998.78
2022-10-02T19:56:04.366Z,98997.91
2022-10-02T19:59:07.998Z,98997.03
2022-10-02T20:02:13.367Z,99012.75
2022-10-02T20:05:22.077Z,99001.41
2022-10-02T20:08:25.993Z,99006.66
2022-10-02T20:11:43.261Z,99007.56
2022-10-02T20:14:55.649Z,99024.13
2022-10-02T20:17:56.961Z,99029.41
2022-10-02T20:21:11.024Z,99040.78
2022-10-02T20:24:17.581Z,99045.13
2022-10-02T20:27:22.123Z,99048.63
2022-10-02T20:30:23.904Z,99059.13
2022-10-02T20:33:26.558Z,99066.09
2022-10-02T20:36:29.094Z,99069.63
2022-10-02T20:39:32.804Z,99070.47
2022-10-02T20:42:43.166Z,99076.59
2022-10-02T20:45:58.599Z,99080.06
2022-10-02T20:49:20.436Z,99092.31
2022-10-02T20:52:21.764Z,99095.78
2022-10-02T20:55:23.280Z,99099.28
2022-10-02T20:58:25.141Z,99099.28
2022-10-02T21:01:37.455Z,99104.50
2022-10-02T21:04:54.272Z,99110.63
2022-10-02T21:08:14.230Z,99113.25
2022-10-02T21:11:35.722Z,99113.25
2022-10-02T21:14:43.484Z,99121.97
2022-10-02T21:18:07.623Z,99115.84
2022-10-02T21:21:28.675Z,99131.56
2022-10-02T21:24:32.745Z,99135.03
2022-10-02T21:27:48.477Z,99135.03
2022-10-02T21:30:54.277Z,99146.38
2022-10-02T21:34:03.914Z,99145.50
2022-10-02T21:37:11.053Z,99149.88
2022-10-02T21:40:31.523Z,99154.22
2022-10-02T21:43:38.844Z,99151.63
2022-10-02T21:46:44.085Z,99164.69
2022-10-02T21:49:48.418Z,99163.81
2022-10-02T21:52:50.196Z,99162.06
2022-10-02T21:55:54.706Z,99162.97
2022-10-02T21:59:11.326Z,99165.56
2022-10-02T22:02:31.478Z,99170.78
2022-10-02T22:05:51.841Z,99172.56
2022-10-02T22:08:56.478Z,99172.56
2022-10-02T22:12:06.979Z,99168.19
2022-10-02T22:15:13.381Z,99168.19
2022-10-02T22:18:23.880Z,99175.16
2022-10-02T22:21:30.344Z,99183.00
2022-10-02T22:24:44.512Z,99179.53
2022-10-02T22:28:04.771Z,99176.03
2022-10-02T22:31:15.145Z,99182.13
2022-10-02T22:34:42.669Z,99193.50
2022-10-02T22:37:52.663Z,99186.50
2022-10-02T22:40:55.085Z,99182.16
2022-10-02T22:44:15.197Z,99187.38
2022-10-02T22:47:37.143Z,99190.88
2022-10-02T22:50:48.624Z,99185.66
2022-10-02T22:53:51.309Z,99180.41
2022-10-02T22:57:01.825Z,99186.50
2022-10-02T23:00:16.574Z,99182.13
2022-10-02T23:03:23.675Z,99179.53
2022-10-02T23:06:27.964Z,99187.41
2022-10-02T23:09:37.343Z,99184.75
2022-10-02T23:12:40.606Z,99186.50
2022-10-02T23:16:00.511Z,99185.63
2022-10-02T23:19:06.868Z,99178.66
2022-10-02T23:22:08.944Z,99179.53
2022-10-02T23:25:15.559Z,99189.09
2022-10-02T23:28:25.295Z,99183.00
2022-10-02T23:31:31.387Z,99194.34
2022-10-02T23:34:34.977Z,99204.78
2022-10-02T23:37:39.274Z,99206.53
2022-10-02T23:41:19.961Z,99199.56
2022-10-02T23:44:21.268Z,99198.69
2022-10-02T23:47:31.967Z,99199.56
2022-10-02T23:50:42.245Z,99203.06
2022-10-02T23:53:43.544Z,99198.72
2022-10-02T23:57:06.992Z,99198.69
